sensor_id;sensor_type;location;lat;lon;timestamp;pressure;altitude;pressure_sealevel;temperature;humidity
12963;BME280;6546;49.882;8.666;2023-06-10T00:01:06;99718.53;;;20.15;51.12
12963;BME280;6546;49.882;8.666;2023-06-10T00:03:33;99717.78;;;20.03;51.21
12963;BME280;6546;49.882;8.666;2023-06-10T00:05:59;99715.69;;;20.05;50.85
12963;BME280;6546;49.882;8.666;2023-06-10T00:08:26;99711.25;;;20.06;51.15
12963;BME280;6546;49.882;8.666;2023-06-10T00:10:54;99705.41;;;20.04;50.83
12963;BME280;6546;49.882;8.666;2023-06-10T00:13:20;99715.91;;;20.04;50.87
12963;BME280;6546;49.882;8.666;2023-06-10T00:15:48;99715.47;;;20.07;50.82
12963;BME280;6546;49.882;8.666;2023-06-10T00:18:15;99704.03;;;20.13;50.58
12963;BME280;6546;49.882;8.666;2023-06-10T00:20:42;99709.28;;;20.13;50.43
12963;BME280;6546;49.882;8.666;2023-06-10T00:23:09;99712.47;;;20.15;50.49
12963;BME280;6546;49.882;8.666;2023-06-10T00:25:35;99708.34;;;20.19;50.52
12963;BME280;6546;49.882;8.666;2023-06-10T00:28:02;99712.56;;;20.20;50.61
12963;BME280;6546;49.882;8.666;2023-06-10T00:30:28;99714.91;;;20.05;50.99
12963;BME280;6546;49.882;8.666;2023-06-10T00:32:56;99720.97;;;19.93;51.14
12963;BME280;6546;49.882;8.666;2023-06-10T00:35:23;99712.88;;;19.83;51.74
12963;BME280;6546;49.882;8.666;2023-06-10T00:37:49;99711.53;;;19.69;52.18
12963;BME280;6546;49.882;8.666;2023-06-10T00:40:16;99713.00;;;19.65;52.55
12963;BME280;6546;49.882;8.666;2023-06-10T00:42:43;99712.09;;;19.60;52.49
12963;BME280;6546;49.882;8.666;2023-06-10T00:45:10;99714.16;;;19.58;52.91
12963;BME280;6546;49.882;8.666;2023-06-10T00:47:36;99711.75;;;19.56;52.56
12963;BME280;6546;49.882;8.666;2023-06-10T00:50:06;99716.44;;;19.43;53.31
12963;BME280;6546;49.882;8.666;2023-06-10T00:52:33;99717.94;;;19.50;52.97
12963;BME280;6546;49.882;8.666;2023-06-10T00:55:01;99711.53;;;19.46;52.99
12963;BME280;6546;49.882;8.666;2023-06-10T00:57:28;99712.88;;;19.37;53.24
12963;BME280;6546;49.882;8.666;2023-06-10T00:59:56;99718.25;;;19.42;53.07
12963;BME280;6546;49.882;8.666;2023-06-10T01:02:23;99714.34;;;19.33;53.42
12963;BME280;6546;49.882;8.666;2023-06-10T01:04:50;99728.84;;;19.24;53.37
12963;BME280;6546;49.882;8.666;2023-06-10T01:07:23;99718.44;;;19.29;53.58
12963;BME280;6546;49.882;8.666;2023-06-10T01:09:54;99717.31;;;19.25;53.75
12963;BME280;6546;49.882;8.666;2023-06-10T01:12:29;99718.09;;;19.14;53.90
12963;BME280;6546;49.882;8.666;2023-06-10T01:14:58;99724.94;;;19.15;53.98
12963;BME280;6546;49.882;8.666;2023-06-10T01:17:25;99719.09;;;19.13;53.75
12963;BME280;6546;49.882;8.666;2023-06-10T01:19:54;99718.69;;;19.16;53.73
12963;BME280;6546;49.882;8.666;2023-06-10T01:22:23;99724.34;;;19.01;54.29
12963;BME280;6546;49.882;8.666;2023-06-10T01:24:51;99721.97;;;19.00;54.27
12963;BME280;6546;49.882;8.666;2023-06-10T01:27:19;99721.25;;;18.93;54.82
12963;BME280;6546;49.882;8.666;2023-06-10T01:29:53;99703.78;;;18.86;54.86
12963;BME280;6546;49.882;8.666;2023-06-10T01:32:26;99719.06;;;18.90;54.67
12963;BME280;6546;49.882;8.666;2023-06-10T01:34:55;99722.91;;;18.87;54.73
12963;BME280;6546;49.882;8.666;2023-06-10T01:37:24;99717.22;;;18.78;55.04
12963;BME280;6546;49.882;8.666;2023-06-10T01:39:55;99726.81;;;18.84;54.77
12963;BME280;6546;49.882;8.666;2023-06-10T01:42:24;99723.47;;;18.77;54.96
12963;BME280;6546;49.882;8.666;2023-06-10T01:44:51;99721.66;;;18.78;54.89
12963;BME280;6546;49.882;8.666;2023-06-10T01:47:18;99698.31;;;18.58;55.24
12963;BME280;6546;49.882;8.666;2023-06-10T01:49:46;99718.84;;;18.61;55.80
12963;BME280;6546;49.882;8.666;2023-06-10T01:52:12;99717.38;;;18.65;55.58
12963;BME280;6546;49.882;8.666;2023-06-10T01:54:40;99717.63;;;18.64;55.22
12963;BME280;6546;49.882;8.666;2023-06-10T01:57:07;99714.50;;;18.55;55.74
12963;BME280;6546;49.882;8.666;2023-06-10T01:59:33;99721.34;;;18.56;55.46
12963;BME280;6546;49.882;8.666;2023-06-10T02:02:01;99720.91;;;18.59;55.42
12963;BME280;6546;49.882;8.666;2023-06-10T02:04:28;99724.53;;;18.58;55.71
12963;BME280;6546;49.882;8.666;2023-06-10T02:06:55;99718.59;;;18.51;55.82
12963;BME280;6546;49.882;8.666;2023-06-10T02:09:21;99731.97;;;18.43;56.21
12963;BME280;6546;49.882;8.666;2023-06-10T02:11:49;99724.22;;;18.48;56.19
12963;BME280;6546;49.882;8.666;2023-06-10T02:14:16;99726.38;;;18.40;56.23
12963;BME280;6546;49.882;8.666;2023-06-10T02:16:42;99733.59;;;18.44;56.24
12963;BME280;6546;49.882;8.666;2023-06-10T02:19:11;99727.19;;;18.40;56.03
12963;BME280;6546;49.882;8.666;2023-06-10T02:21:38;99727.75;;;18.42;56.21
12963;BME280;6546;49.882;8.666;2023-06-10T02:24:05;99727.19;;;18.40;56.15
12963;BME280;6546;49.882;8.666;2023-06-10T02:26:32;99723.81;;;18.33;56.62
12963;BME280;6546;49.882;8.666;2023-06-10T02:29:00;99722.38;;;18.37;56.45
12963;BME280;6546;49.882;8.666;2023-06-10T02:31:26;99712.06;;;18.24;56.42
12963;BME280;6546;49.882;8.666;2023-06-10T02:33:54;99717.41;;;18.29;56.77
12963;BME280;6546;49.882;8.666;2023-06-10T02:36:21;99714.78;;;18.29;56.58
12963;BME280;6546;49.882;8.666;2023-06-10T02:38:49;99715.16;;;18.32;56.26
12963;BME280;6546;49.882;8.666;2023-06-10T02:41:16;99727.06;;;18.35;56.30
12963;BME280;6546;49.882;8.666;2023-06-10T02:43:42;99722.00;;;18.33;56.33
12963;BME280;6546;49.882;8.666;2023-06-10T02:46:10;99722.91;;;18.27;56.35
12963;BME280;6546;49.882;8.666;2023-06-10T02:48:41;99714.66;;;18.24;56.80
12963;BME280;6546;49.882;8.666;2023-06-10T02:51:08;99725.16;;;18.24;56.57
12963;BME280;6546;49.882;8.666;2023-06-10T02:53:34;99723.69;;;18.28;56.60
12963;BME280;6546;49.882;8.666;2023-06-10T02:56:01;99728.34;;;18.26;56.47
12963;BME280;6546;49.882;8.666;2023-06-10T02:58:27;99734.25;;;18.21;56.54
12963;BME280;6546;49.882;8.666;2023-06-10T03:00:54;99725.44;;;18.16;57.00
12963;BME280;6546;49.882;8.666;2023-06-10T03:03:22;99732.72;;;18.14;57.04
12963;BME280;6546;49.882;8.666;2023-06-10T03:05:48;99717.75;;;18.03;57.39
12963;BME280;6546;49.882;8.666;2023-06-10T03:08:15;99743.78;;;18.16;56.96
12963;BME280;6546;49.882;8.666;2023-06-10T03:10:41;99738.41;;;18.11;57.50
12963;BME280;6546;49.882;8.666;2023-06-10T03:13:08;99738.03;;;18.07;57.39
12963;BME280;6546;49.882;8.666;2023-06-10T03:15:35;99737.31;;;18.00;57.93
12963;BME280;6546;49.882;8.666;2023-06-10T03:18:03;99732.06;;;18.00;57.91
12963;BME280;6546;49.882;8.666;2023-06-10T03:20:31;99736.66;;;18.05;57.54
12963;BME280;6546;49.882;8.666;2023-06-10T03:23:02;99739.94;;;18.00;57.68
12963;BME280;6546;49.882;8.666;2023-06-10T03:25:28;99743.59;;;17.99;57.81
12963;BME280;6546;49.882;8.666;2023-06-10T03:27:56;99739.78;;;17.95;58.22
12963;BME280;6546;49.882;8.666;2023-06-10T03:30:22;99744.66;;;17.92;58.40
12963;BME280;6546;49.882;8.666;2023-06-10T03:32:49;99741.59;;;17.76;58.34
12963;BME280;6546;49.882;8.666;2023-06-10T03:35:15;99750.03;;;17.78;58.53
12963;BME280;6546;49.882;8.666;2023-06-10T03:37:44;99748.84;;;17.74;58.73
12963;BME280;6546;49.882;8.666;2023-06-10T03:40:10;99756.13;;;17.72;59.53
12963;BME280;6546;49.882;8.666;2023-06-10T03:42:37;99747.28;;;17.73;58.85
12963;BME280;6546;49.882;8.666;2023-06-10T03:45:04;99752.38;;;17.87;59.10
12963;BME280;6546;49.882;8.666;2023-06-10T03:47:33;99754.41;;;17.84;59.61
12963;BME280;6546;49.882;8.666;2023-06-10T03:50:01;99757.19;;;17.90;59.00
12963;BME280;6546;49.882;8.666;2023-06-10T03:52:28;99760.38;;;17.92;58.93
12963;BME280;6546;49.882;8.666;2023-06-10T03:54:56;99752.53;;;17.92;58.71
12963;BME280;6546;49.882;8.666;2023-06-10T03:57:23;99751.94;;;17.90;59.57
12963;BME280;6546;49.882;8.666;2023-06-10T03:59:49;99759.94;;;17.95;59.70
12963;BME280;6546;49.882;8.666;2023-06-10T04:02:16;99757.91;;;17.97;59.20
12963;BME280;6546;49.882;8.666;2023-06-10T04:04:43;99759.44;;;18.04;58.64
12963;BME280;6546;49.882;8.666;2023-06-10T04:07:10;99769.41;;;18.14;58.22
12963;BME280;6546;49.882;8.666;2023-06-10T04:09:37;99771.16;;;18.02;58.43
12963;BME280;6546;49.882;8.666;2023-06-10T04:12:06;99770.16;;;18.03;58.31
12963;BME280;6546;49.882;8.666;2023-06-10T04:14:34;99774.72;;;18.07;58.53
12963;BME280;6546;49.882;8.666;2023-06-10T04:17:02;99773.41;;;18.16;57.85
12963;BME280;6546;49.882;8.666;2023-06-10T04:19:28;99780.75;;;18.26;57.91
12963;BME280;6546;49.882;8.666;2023-06-10T04:21:56;99779.75;;;18.27;57.73
12963;BME280;6546;49.882;8.666;2023-06-10T04:24:22;99779.03;;;18.38;57.41
12963;BME280;6546;49.882;8.666;2023-06-10T04:26:49;99779.16;;;18.43;56.74
12963;BME280;6546;49.882;8.666;2023-06-10T04:29:17;99765.03;;;18.44;56.90
12963;BME280;6546;49.882;8.666;2023-06-10T04:31:43;99762.25;;;18.39;57.25
12963;BME280;6546;49.882;8.666;2023-06-10T04:34:11;99761.06;;;18.42;57.46
12963;BME280;6546;49.882;8.666;2023-06-10T04:36:38;99773.47;;;18.46;57.19
12963;BME280;6546;49.882;8.666;2023-06-10T04:39:05;99765.50;;;18.41;57.12
12963;BME280;6546;49.882;8.666;2023-06-10T04:41:31;99773.47;;;18.46;57.11
12963;BME280;6546;49.882;8.666;2023-06-10T04:43:58;99766.00;;;18.50;57.23
12963;BME280;6546;49.882;8.666;2023-06-10T04:46:26;99770.16;;;18.57;56.88
12963;BME280;6546;49.882;8.666;2023-06-10T04:48:52;99774.53;;;18.63;56.77
12963;BME280;6546;49.882;8.666;2023-06-10T04:51:19;99774.78;;;18.73;56.70
12963;BME280;6546;49.882;8.666;2023-06-10T04:53:46;99771.13;;;18.74;56.29
12963;BME280;6546;49.882;8.666;2023-06-10T04:56:13;99772.66;;;18.82;56.70
12963;BME280;6546;49.882;8.666;2023-06-10T04:58:40;99769.94;;;18.88;56.25
12963;BME280;6546;49.882;8.666;2023-06-10T05:01:07;99771.47;;;18.96;56.38
12963;BME280;6546;49.882;8.666;2023-06-10T05:03:35;99773.09;;;19.09;55.71
12963;BME280;6546;49.882;8.666;2023-06-10T05:06:01;99768.41;;;19.11;55.50
12963;BME280;6546;49.882;8.666;2023-06-10T05:08:28;99775.38;;;19.17;55.15
12963;BME280;6546;49.882;8.666;2023-06-10T05:10:54;99778.34;;;19.20;55.30
12963;BME280;6546;49.882;8.666;2023-06-10T05:13:21;99780.44;;;19.30;55.02
12963;BME280;6546;49.882;8.666;2023-06-10T05:15:47;99781.06;;;19.44;54.97
12963;BME280;6546;49.882;8.666;2023-06-10T05:18:14;99780.03;;;19.56;54.55
12963;BME280;6546;49.882;8.666;2023-06-10T05:20:42;99781.50;;;19.52;54.73
12963;BME280;6546;49.882;8.666;2023-06-10T05:23:08;99788.63;;;19.63;54.85
12963;BME280;6546;49.882;8.666;2023-06-10T05:25:35;99787.03;;;19.74;55.42
12963;BME280;6546;49.882;8.666;2023-06-10T05:28:01;99791.03;;;19.76;54.40
12963;BME280;6546;49.882;8.666;2023-06-10T05:30:28;99793.28;;;19.84;54.81
12963;BME280;6546;49.882;8.666;2023-06-10T05:32:54;99795.69;;;19.98;55.17
12963;BME280;6546;49.882;8.666;2023-06-10T05:35:21;99801.88;;;20.03;54.13
12963;BME280;6546;49.882;8.666;2023-06-10T05:37:49;99807.94;;;20.27;53.00
12963;BME280;6546;49.882;8.666;2023-06-10T05:40:16;99803.44;;;20.51;52.47
12963;BME280;6546;49.882;8.666;2023-06-10T05:42:45;99795.75;;;20.89;50.99
12963;BME280;6546;49.882;8.666;2023-06-10T05:45:12;99796.47;;;21.13;50.58
12963;BME280;6546;49.882;8.666;2023-06-10T05:47:39;99798.63;;;21.82;48.03
12963;BME280;6546;49.882;8.666;2023-06-10T05:50:07;99796.19;;;22.36;46.55
12963;BME280;6546;49.882;8.666;2023-06-10T05:52:34;99799.41;;;22.38;46.85
12963;BME280;6546;49.882;8.666;2023-06-10T05:55:03;99794.75;;;22.45;46.91
12963;BME280;6546;49.882;8.666;2023-06-10T05:57:29;99797.06;;;22.63;48.03
12963;BME280;6546;49.882;8.666;2023-06-10T05:59:56;99802.34;;;22.63;47.63
12963;BME280;6546;49.882;8.666;2023-06-10T06:02:22;99803.81;;;22.54;47.69
12963;BME280;6546;49.882;8.666;2023-06-10T06:04:49;99794.63;;;22.35;47.54
12963;BME280;6546;49.882;8.666;2023-06-10T06:07:15;99799.22;;;22.23;47.38
12963;BME280;6546;49.882;8.666;2023-06-10T06:09:42;99804.19;;;22.41;46.95
12963;BME280;6546;49.882;8.666;2023-06-10T06:12:10;99809.34;;;23.91;44.21
12963;BME280;6546;49.882;8.666;2023-06-10T06:14:37;99805.09;;;27.13;36.94
12963;BME280;6546;49.882;8.666;2023-06-10T06:17:05;99806.13;;;28.94;31.79
12963;BME280;6546;49.882;8.666;2023-06-10T06:19:31;99800.06;;;30.04;30.14
12963;BME280;6546;49.882;8.666;2023-06-10T06:21:58;99807.53;;;31.81;26.70
12963;BME280;6546;49.882;8.666;2023-06-10T06:24:24;99806.59;;;33.16;25.32
12963;BME280;6546;49.882;8.666;2023-06-10T06:26:51;99813.03;;;34.34;22.51
12963;BME280;6546;49.882;8.666;2023-06-10T06:29:19;99806.16;;;34.07;23.22
12963;BME280;6546;49.882;8.666;2023-06-10T06:31:45;99803.56;;;34.48;22.32
12963;BME280;6546;49.882;8.666;2023-06-10T06:34:12;99808.28;;;35.67;21.44
12963;BME280;6546;49.882;8.666;2023-06-10T06:36:38;99806.47;;;35.26;21.83
12963;BME280;6546;49.882;8.666;2023-06-10T06:39:05;99806.50;;;35.95;20.92
12963;BME280;6546;49.882;8.666;2023-06-10T06:41:31;99805.84;;;35.86;20.16
12963;BME280;6546;49.882;8.666;2023-06-10T06:43:58;99794.75;;;36.12;20.10
12963;BME280;6546;49.882;8.666;2023-06-10T06:46:26;99803.00;;;36.55;20.17
12963;BME280;6546;49.882;8.666;2023-06-10T06:48:53;99804.13;;;35.94;20.55
12963;BME280;6546;49.882;8.666;2023-06-10T06:51:20;99811.09;;;36.55;20.49
12963;BME280;6546;49.882;8.666;2023-06-10T06:53:46;99805.75;;;36.71;21.54
12963;BME280;6546;49.882;8.666;2023-06-10T06:56:15;99804.47;;;35.92;20.75
12963;BME280;6546;49.882;8.666;2023-06-10T06:58:42;99811.63;;;34.27;22.59
12963;BME280;6546;49.882;8.666;2023-06-10T07:01:08;99805.09;;;33.53;23.43
12963;BME280;6546;49.882;8.666;2023-06-10T07:03:36;99803.44;;;33.05;23.87
12963;BME280;6546;49.882;8.666;2023-06-10T07:06:03;99808.16;;;32.83;24.29
12963;BME280;6546;49.882;8.666;2023-06-10T07:08:30;99805.28;;;32.05;25.32
12963;BME280;6546;49.882;8.666;2023-06-10T07:10:56;99809.31;;;31.55;26.47
12963;BME280;6546;49.882;8.666;2023-06-10T07:13:23;99800.44;;;31.23;27.04
12963;BME280;6546;49.882;8.666;2023-06-10T07:15:49;99812.97;;;31.14;27.38
12963;BME280;6546;49.882;8.666;2023-06-10T07:18:16;99807.06;;;31.04;27.88
12963;BME280;6546;49.882;8.666;2023-06-10T07:20:44;99813.44;;;31.39;28.07
12963;BME280;6546;49.882;8.666;2023-06-10T07:23:10;99820.44;;;31.26;28.07
12963;BME280;6546;49.882;8.666;2023-06-10T07:25:37;99815.38;;;30.53;28.41
12963;BME280;6546;49.882;8.666;2023-06-10T07:28:04;99818.53;;;30.00;29.30
12963;BME280;6546;49.882;8.666;2023-06-10T07:30:30;99817.56;;;29.64;30.17
12963;BME280;6546;49.882;8.666;2023-06-10T07:32:57;99820.53;;;29.11;30.84
12963;BME280;6546;49.882;8.666;2023-06-10T07:35:24;99815.28;;;29.06;31.63
12963;BME280;6546;49.882;8.666;2023-06-10T07:37:51;99820.25;;;28.94;31.70
12963;BME280;6546;49.882;8.666;2023-06-10T07:40:18;99820.03;;;28.30;32.47
12963;BME280;6546;49.882;8.666;2023-06-10T07:42:45;99810.41;;;28.05;33.51
12963;BME280;6546;49.882;8.666;2023-06-10T07:45:11;99817.91;;;27.74;33.97
12963;BME280;6546;49.882;8.666;2023-06-10T07:47:38;99814.81;;;27.28;34.52
12963;BME280;6546;49.882;8.666;2023-06-10T07:50:05;99818.69;;;27.41;34.87
12963;BME280;6546;49.882;8.666;2023-06-10T07:52:31;99805.97;;;27.38;34.96
12963;BME280;6546;49.882;8.666;2023-06-10T07:54:59;99815.34;;;27.30;35.01
12963;BME280;6546;49.882;8.666;2023-06-10T07:57:26;99812.16;;;26.89;35.63
12963;BME280;6546;49.882;8.666;2023-06-10T07:59:53;99812.53;;;27.11;36.64
12963;BME280;6546;49.882;8.666;2023-06-10T08:02:20;99812.44;;;27.27;35.69
12963;BME280;6546;49.882;8.666;2023-06-10T08:04:46;99818.09;;;27.20;35.54
12963;BME280;6546;49.882;8.666;2023-06-10T08:07:13;99812.28;;;27.13;35.64
12963;BME280;6546;49.882;8.666;2023-06-10T08:09:39;99810.66;;;27.17;36.34
12963;BME280;6546;49.882;8.666;2023-06-10T08:12:08;99810.84;;;27.26;35.84
12963;BME280;6546;49.882;8.666;2023-06-10T08:14:34;99818.94;;;27.10;35.67
12963;BME280;6546;49.882;8.666;2023-06-10T08:17:02;99807.88;;;26.93;35.91
12963;BME280;6546;49.882;8.666;2023-06-10T08:19:31;99808.56;;;27.09;36.39
12963;BME280;6546;49.882;8.666;2023-06-10T08:21:57;99803.69;;;26.87;36.48
12963;BME280;6546;49.882;8.666;2023-06-10T08:24:24;99825.91;;;27.01;36.24
12963;BME280;6546;49.882;8.666;2023-06-10T08:26:50;99815.41;;;27.20;35.54
12963;BME280;6546;49.882;8.666;2023-06-10T08:29:18;99817.44;;;27.33;36.51
12963;BME280;6546;49.882;8.666;2023-06-10T08:31:45;99818.88;;;27.54;35.88
12963;BME280;6546;49.882;8.666;2023-06-10T08:34:11;99823.09;;;27.60;34.67
12963;BME280;6546;49.882;8.666;2023-06-10T08:36:38;99820.50;;;27.50;34.89
12963;BME280;6546;49.882;8.666;2023-06-10T08:39:04;99818.19;;;27.39;35.54
12963;BME280;6546;49.882;8.666;2023-06-10T08:41:35;99821.28;;;27.56;35.95
12963;BME280;6546;49.882;8.666;2023-06-10T08:44:08;99827.91;;;27.87;35.83
12963;BME280;6546;49.882;8.666;2023-06-10T08:46:38;99826.22;;;27.96;34.48
12963;BME280;6546;49.882;8.666;2023-06-10T08:49:09;99829.38;;;27.98;34.52
12963;BME280;6546;49.882;8.666;2023-06-10T08:51:36;99815.50;;;28.01;34.56
12963;BME280;6546;49.882;8.666;2023-06-10T08:54:18;99809.84;;;27.84;34.47
12963;BME280;6546;49.882;8.666;2023-06-10T08:56:49;99810.34;;;27.86;33.13
12963;BME280;6546;49.882;8.666;2023-06-10T08:59:16;99817.56;;;28.09;34.25
12963;BME280;6546;49.882;8.666;2023-06-10T09:01:44;99792.78;;;27.85;33.41
12963;BME280;6546;49.882;8.666;2023-06-10T09:04:11;99804.84;;;28.06;34.09
12963;BME280;6546;49.882;8.666;2023-06-10T09:06:39;99807.44;;;28.35;34.21
12963;BME280;6546;49.882;8.666;2023-06-10T09:09:07;99808.22;;;28.36;33.64
12963;BME280;6546;49.882;8.666;2023-06-10T09:11:33;99800.72;;;28.38;33.70
12963;BME280;6546;49.882;8.666;2023-06-10T09:14:00;99799.44;;;28.35;33.79
12963;BME280;6546;49.882;8.666;2023-06-10T09:16:26;99800.72;;;28.38;33.29
12963;BME280;6546;49.882;8.666;2023-06-10T09:18:55;99790.88;;;28.57;33.23
12963;BME280;6546;49.882;8.666;2023-06-10T09:21:22;99794.03;;;28.83;32.96
12963;BME280;6546;49.882;8.666;2023-06-10T09:23:48;99796.19;;;28.99;30.91
12963;BME280;6546;49.882;8.666;2023-06-10T09:26:15;99796.47;;;28.79;32.07
12963;BME280;6546;49.882;8.666;2023-06-10T09:28:43;99798.13;;;28.94;32.47
12963;BME280;6546;49.882;8.666;2023-06-10T09:31:11;99796.66;;;29.20;31.69
12963;BME280;6546;49.882;8.666;2023-06-10T09:33:39;99790.47;;;29.06;32.16
12963;BME280;6546;49.882;8.666;2023-06-10T09:36:07;99789.84;;;28.95;32.19
12963;BME280;6546;49.882;8.666;2023-06-10T09:38:35;99776.59;;;28.72;31.88
12963;BME280;6546;49.882;8.666;2023-06-10T09:41:02;99784.38;;;28.68;32.01
12963;BME280;6546;49.882;8.666;2023-06-10T09:43:39;99790.94;;;28.76;31.98
12963;BME280;6546;49.882;8.666;2023-06-10T09:46:07;99788.66;;;28.45;32.54
12963;BME280;6546;49.882;8.666;2023-06-10T09:48:35;99775.69;;;28.39;31.58
12963;BME280;6546;49.882;8.666;2023-06-10T09:51:03;99778.97;;;28.31;32.20
12963;BME280;6546;49.882;8.666;2023-06-10T09:53:36;99781.47;;;28.46;32.59
12963;BME280;6546;49.882;8.666;2023-06-10T09:56:03;99780.19;;;28.62;32.13
12963;BME280;6546;49.882;8.666;2023-06-10T09:58:35;99768.94;;;28.65;32.91
12963;BME280;6546;49.882;8.666;2023-06-10T10:01:04;99770.03;;;28.83;32.10
12963;BME280;6546;49.882;8.666;2023-06-10T10:03:31;99776.00;;;28.56;32.22
12963;BME280;6546;49.882;8.666;2023-06-10T10:05:58;99764.69;;;28.83;31.35
12963;BME280;6546;49.882;8.666;2023-06-10T10:08:25;99767.59;;;28.86;31.33
12963;BME280;6546;49.882;8.666;2023-06-10T10:10:53;99764.91;;;28.86;31.93
12963;BME280;6546;49.882;8.666;2023-06-10T10:13:22;99766.78;;;29.04;31.51
12963;BME280;6546;49.882;8.666;2023-06-10T10:15:49;99759.44;;;28.96;31.94
12963;BME280;6546;49.882;8.666;2023-06-10T10:18:19;99753.88;;;28.93;31.95
12963;BME280;6546;49.882;8.666;2023-06-10T10:20:50;99768.81;;;28.94;31.81
12963;BME280;6546;49.882;8.666;2023-06-10T10:23:24;99764.44;;;28.84;32.11
12963;BME280;6546;49.882;8.666;2023-06-10T10:25:56;99763.13;;;28.82;32.93
12963;BME280;6546;49.882;8.666;2023-06-10T10:28:24;99755.47;;;28.94;32.27
12963;BME280;6546;49.882;8.666;2023-06-10T10:30:54;99749.25;;;29.17;31.49
12963;BME280;6546;49.882;8.666;2023-06-10T10:33:31;99752.13;;;29.21;31.87
12963;BME280;6546;49.882;8.666;2023-06-10T10:36:00;99745.16;;;29.38;31.29
12963;BME280;6546;49.882;8.666;2023-06-10T10:38:27;99747.28;;;29.23;30.64
12963;BME280;6546;49.882;8.666;2023-06-10T10:40:56;99750.38;;;28.97;31.71
12963;BME280;6546;49.882;8.666;2023-06-10T10:43:25;99744.44;;;29.00;31.82
12963;BME280;6546;49.882;8.666;2023-06-10T10:45:58;99729.47;;;29.04;31.69
12963;BME280;6546;49.882;8.666;2023-06-10T10:48:26;99733.38;;;28.75;30.49
12963;BME280;6546;49.882;8.666;2023-06-10T10:50:56;99736.81;;;28.56;29.08
12963;BME280;6546;49.882;8.666;2023-06-10T10:53:23;99726.66;;;28.58;27.99
12963;BME280;6546;49.882;8.666;2023-06-10T10:55:59;99739.06;;;28.49;28.55
12963;BME280;6546;49.882;8.666;2023-06-10T10:58:26;99736.69;;;28.66;28.29
12963;BME280;6546;49.882;8.666;2023-06-10T11:00:52;99732.78;;;28.59;27.51
12963;BME280;6546;49.882;8.666;2023-06-10T11:03:19;99712.94;;;28.70;28.47
12963;BME280;6546;49.882;8.666;2023-06-10T11:05:47;99719.91;;;28.85;27.96
12963;BME280;6546;49.882;8.666;2023-06-10T11:08:15;99723.59;;;28.70;27.95
12963;BME280;6546;49.882;8.666;2023-06-10T11:11:19;99717.66;;;28.73;27.39
12963;BME280;6546;49.882;8.666;2023-06-10T11:14:07;99721.25;;;28.63;28.03
12963;BME280;6546;49.882;8.666;2023-06-10T11:16:39;99722.84;;;28.46;27.17
12963;BME280;6546;49.882;8.666;2023-06-10T11:19:06;99719.53;;;28.54;27.27
12963;BME280;6546;49.882;8.666;2023-06-10T11:21:57;99711.75;;;28.39;27.86
12963;BME280;6546;49.882;8.666;2023-06-10T11:24:24;99713.75;;;28.47;28.65
12963;BME280;6546;49.882;8.666;2023-06-10T11:26:53;99710.47;;;28.55;28.25
12963;BME280;6546;49.882;8.666;2023-06-10T11:29:20;99710.91;;;28.62;28.16
12963;BME280;6546;49.882;8.666;2023-06-10T11:31:50;99702.69;;;28.77;28.26
12963;BME280;6546;49.882;8.666;2023-06-10T11:34:22;99714.44;;;28.76;28.09
12963;BME280;6546;49.882;8.666;2023-06-10T11:36:51;99711.53;;;28.73;27.06
12963;BME280;6546;49.882;8.666;2023-06-10T11:39:19;99706.28;;;28.49;27.88
12963;BME280;6546;49.882;8.666;2023-06-10T11:41:46;99700.66;;;28.50;27.21
12963;BME280;6546;49.882;8.666;2023-06-10T11:44:14;99711.75;;;28.39;27.64
12963;BME280;6546;49.882;8.666;2023-06-10T11:46:41;99715.00;;;28.36;28.87
12963;BME280;6546;49.882;8.666;2023-06-10T11:49:09;99693.91;;;28.21;27.66
12963;BME280;6546;49.882;8.666;2023-06-10T11:51:37;99701.81;;;28.26;28.17
12963;BME280;6546;49.882;8.666;2023-06-10T11:54:07;99701.94;;;28.15;28.88
12963;BME280;6546;49.882;8.666;2023-06-10T11:56:34;99691.88;;;28.12;28.63
12963;BME280;6546;49.882;8.666;2023-06-10T11:59:03;99693.16;;;28.34;28.74
12963;BME280;6546;49.882;8.666;2023-06-10T12:01:33;99700.53;;;28.42;29.26
12963;BME280;6546;49.882;8.666;2023-06-10T12:04:03;99698.94;;;28.41;28.81
12963;BME280;6546;49.882;8.666;2023-06-10T12:06:40;99688.59;;;28.21;28.35
12963;BME280;6546;49.882;8.666;2023-06-10T12:09:09;99693.38;;;28.19;28.93
12963;BME280;6546;49.882;8.666;2023-06-10T12:11:39;99686.63;;;28.26;28.70
12963;BME280;6546;49.882;8.666;2023-06-10T12:14:06;99689.88;;;28.42;29.06
12963;BME280;6546;49.882;8.666;2023-06-10T12:16:34;99701.41;;;28.56;28.89
12963;BME280;6546;49.882;8.666;2023-06-10T12:19:01;99686.53;;;28.50;26.70
12963;BME280;6546;49.882;8.666;2023-06-10T12:21:29;99693.03;;;28.44;28.77
12963;BME280;6546;49.882;8.666;2023-06-10T12:24:03;99687.66;;;28.67;27.82
12963;BME280;6546;49.882;8.666;2023-06-10T12:26:38;99687.69;;;28.44;28.06
12963;BME280;6546;49.882;8.666;2023-06-10T12:29:22;99682.91;;;28.27;28.11
12963;BME280;6546;49.882;8.666;2023-06-10T12:31:58;99672.44;;;28.31;27.44
12963;BME280;6546;49.882;8.666;2023-06-10T12:34:33;99679.66;;;28.30;28.18
12963;BME280;6546;49.882;8.666;2023-06-10T12:37:01;99680.38;;;28.36;28.42
12963;BME280;6546;49.882;8.666;2023-06-10T12:39:28;99677.75;;;28.31;28.03
12963;BME280;6546;49.882;8.666;2023-06-10T12:41:55;99675.31;;;28.15;27.96
12963;BME280;6546;49.882;8.666;2023-06-10T12:44:35;99685.03;;;28.25;28.24
12963;BME280;6546;49.882;8.666;2023-06-10T12:47:08;99677.06;;;28.25;27.92
12963;BME280;6546;49.882;8.666;2023-06-10T12:49:37;99675.47;;;28.24;27.99
12963;BME280;6546;49.882;8.666;2023-06-10T12:52:05;99670.22;;;28.19;28.13
12963;BME280;6546;49.882;8.666;2023-06-10T12:54:32;99663.59;;;28.17;27.72
12963;BME280;6546;49.882;8.666;2023-06-10T12:56:59;99669.19;;;28.34;28.55
12963;BME280;6546;49.882;8.666;2023-06-10T12:59:26;99662.16;;;28.43;28.79
12963;BME280;6546;49.882;8.666;2023-06-10T13:01:54;99664.31;;;28.59;28.58
12963;BME280;6546;49.882;8.666;2023-06-10T13:04:22;99671.50;;;28.59;28.03
12963;BME280;6546;49.882;8.666;2023-06-10T13:06:48;99667.34;;;28.53;28.66
12963;BME280;6546;49.882;8.666;2023-06-10T13:09:15;99675.25;;;28.39;29.24
12963;BME280;6546;49.882;8.666;2023-06-10T13:11:42;99654.16;;;28.43;28.44
12963;BME280;6546;49.882;8.666;2023-06-10T13:14:10;99665.09;;;28.41;29.00